createdAt,value
2018-11-22T00:00:43.676Z,20.10
2018-11-22T00:03:13.293Z,20.10
2018-11-22T00:05:43.398Z,20.10
2018-11-22T00:08:13.027Z,20.10
2018-11-22T00:10:42.624Z,20.10
2018-11-22T00:13:12.264Z,20.10
2018-11-22T00:15:41.934Z,20.00
2018-11-22T00:18:11.987Z,20.00
2018-11-22T00:20:41.600Z,20.00
2018-11-22T00:23:11.285Z,20.00
2018-11-22T00:25:40.941Z,20.00
2018-11-22T00:28:10.661Z,20.00
2018-11-22T00:30:40.287Z,20.00
2018-11-22T00:33:09.935Z,20.00
2018-11-22T00:35:39.597Z,20.00
2018-11-22T00:38:09.198Z,20.00
2018-11-22T00:40:38.822Z,20.00
2018-11-22T00:43:08.494Z,19.90
2018-11-22T00:45:38.115Z,20.00
2018-11-22T00:48:07.802Z,20.00
2018-11-22T00:50:37.446Z,19.90
2018-11-22T00:53:07.150Z,19.90
2018-11-22T00:55:36.786Z,19.90
2018-11-22T00:58:06.849Z,19.90
2018-11-22T01:00:36.440Z,19.90
2018-11-22T01:03:06.095Z,19.90
2018-11-22T01:05:35.723Z,19.90
2018-11-22T01:08:06.056Z,19.90
2018-11-22T01:10:35.769Z,19.90
2018-11-22T01:13:05.401Z,19.90
2018-11-22T01:15:35.075Z,19.80
2018-11-22T01:18:04.869Z,19.80
2018-11-22T01:20:34.612Z,19.80
2018-11-22T01:23:04.610Z,19.80
2018-11-22T01:25:34.272Z,19.80
2018-11-22T01:28:04.841Z,19.90
2018-11-22T01:30:34.546Z,19.90
2018-11-22T01:33:23.143Z,19.80
2018-11-22T01:36:11.740Z,19.80
2018-11-22T01:39:00.348Z,19.80
2018-11-22T01:41:41.780Z,19.80
2018-11-22T01:44:23.376Z,19.80
2018-11-22T01:47:04.603Z,19.70
2018-11-22T01:49:45.657Z,19.70
2018-11-22T01:52:26.809Z,19.70
2018-11-22T01:55:08.346Z,19.70
2018-11-22T01:57:49.604Z,19.70
2018-11-22T02:00:31.056Z,19.70
2018-11-22T02:03:12.652Z,19.70
2018-11-22T02:05:53.916Z,19.60
2018-11-22T02:08:34.893Z,19.60
2018-11-22T02:11:15.641Z,19.60
2018-11-22T02:13:56.997Z,19.60
2018-11-22T02:16:38.729Z,19.60
2018-11-22T02:19:19.952Z,19.60
2018-11-22T02:22:01.336Z,19.50
2018-11-22T02:24:42.565Z,19.50
2018-11-22T02:27:24.106Z,19.50
2018-11-22T02:30:05.415Z,19.50
2018-11-22T02:32:47.531Z,19.50
2018-11-22T02:35:28.750Z,19.50
2018-11-22T02:38:09.757Z,19.50
2018-11-22T02:40:50.550Z,19.50
2018-11-22T02:43:32.138Z,19.50
2018-11-22T02:46:12.843Z,19.50
2018-11-22T02:48:54.026Z,19.50
2018-11-22T02:51:34.670Z,19.40
2018-11-22T02:54:16.026Z,19.50
2018-11-22T02:56:57.635Z,19.40
2018-11-22T02:59:38.938Z,19.40
2018-11-22T03:02:19.977Z,19.40
2018-11-22T03:05:01.226Z,19.40
2018-11-22T03:07:42.872Z,19.40
2018-11-22T03:10:23.827Z,19.40
2018-11-22T03:13:05.093Z,19.40
2018-11-22T03:15:47.015Z,19.40
2018-11-22T03:18:27.808Z,19.40
2018-11-22T03:21:09.163Z,19.40
2018-11-22T03:23:49.899Z,19.40
2018-11-22T03:26:29.557Z,19.40
2018-11-22T03:29:18.157Z,19.40
2018-11-22T03:32:06.747Z,19.40
2018-11-22T03:34:55.331Z,19.30
2018-11-22T03:37:43.932Z,19.30
2018-11-22T03:40:32.528Z,19.30
2018-11-22T03:43:39.821Z,19.30
2018-11-22T03:46:28.412Z,19.30
2018-11-22T03:49:16.998Z,19.30
2018-11-22T03:52:05.651Z,19.30
2018-11-22T03:54:54.241Z,19.30
2018-11-22T03:57:43.196Z,19.30
2018-11-22T04:00:31.806Z,19.30
2018-11-22T04:03:20.468Z,19.20
2018-11-22T04:09:16.885Z,19.30
2018-11-22T04:12:05.474Z,19.30
2018-11-22T04:14:54.117Z,19.20
2018-11-22T04:17:42.874Z,19.20
2018-11-22T04:20:32.620Z,19.20
2018-11-22T04:23:21.253Z,19.20
2018-11-22T04:26:09.895Z,19.20
2018-11-22T04:32:06.390Z,19.20
2018-11-22T04:34:54.952Z,19.20
2018-11-22T04:37:43.843Z,19.20
2018-11-22T04:40:33.144Z,19.20
2018-11-22T04:43:21.724Z,19.20
2018-11-22T04:52:12.520Z,19.10
2018-11-22T04:55:01.116Z,19.20
2018-11-22T04:57:49.692Z,19.10
2018-11-22T05:00:38.289Z,19.10
2018-11-22T05:03:26.878Z,19.10
2018-11-22T05:06:15.476Z,19.10
2018-11-22T05:09:04.404Z,19.10
2018-11-22T05:11:52.981Z,19.10
2018-11-22T05:14:41.587Z,19.10
2018-11-22T05:17:30.234Z,19.10
2018-11-22T05:20:20.019Z,19.10
2018-11-22T05:23:08.621Z,19.10
2018-11-22T05:25:57.202Z,19.10
2018-11-22T05:28:45.835Z,19.10
2018-11-22T05:31:34.488Z,19.10
2018-11-22T05:37:17.355Z,19.10
2018-11-22T05:40:07.610Z,19.10
2018-11-22T05:42:56.488Z,19.10
2018-11-22T05:45:45.099Z,19.10
2018-11-22T05:48:33.673Z,19.10
2018-11-22T05:51:22.625Z,19.10
2018-11-22T05:54:11.258Z,19.10
2018-11-22T05:56:40.961Z,19.10
2018-11-22T05:59:29.546Z,19.10
2018-11-22T06:02:18.140Z,19.00
2018-11-22T06:05:07.088Z,19.10
2018-11-22T06:07:55.896Z,19.10
2018-11-22T06:10:45.011Z,19.00
2018-11-22T06:13:33.661Z,19.10
2018-11-22T06:16:03.671Z,19.00
2018-11-22T06:21:46.458Z,19.00
2018-11-22T06:24:35.041Z,19.00
2018-11-22T06:27:23.685Z,19.00
2018-11-22T06:30:15.334Z,19.00
2018-11-22T06:33:04.568Z,19.00
2018-11-22T06:35:53.246Z,19.00
2018-11-22T06:41:49.653Z,19.00
2018-11-22T06:44:38.767Z,19.00
2018-11-22T06:50:23.269Z,19.00
2018-11-22T06:53:11.846Z,19.00
2018-11-22T06:56:00.454Z,19.00
2018-11-22T06:58:49.039Z,19.00
2018-11-22T07:01:37.627Z,18.90
2018-11-22T07:04:26.283Z,19.00
2018-11-22T07:07:14.876Z,18.90
2018-11-22T07:10:03.702Z,19.00
2018-11-22T07:12:52.450Z,18.90
2018-11-22T07:15:41.031Z,18.90
2018-11-22T07:18:29.633Z,18.90
2018-11-22T07:21:18.260Z,18.90
2018-11-22T07:27:01.623Z,18.90
2018-11-22T07:29:50.201Z,18.90
2018-11-22T07:32:38.824Z,18.90
2018-11-22T07:35:29.027Z,18.90
2018-11-22T07:38:17.642Z,18.90
2018-11-22T07:41:06.875Z,18.90
2018-11-22T07:43:47.873Z,18.90
2018-11-22T07:46:28.816Z,18.90
2018-11-22T07:49:10.234Z,18.90
2018-11-22T07:51:51.763Z,18.90
2018-11-22T07:54:33.148Z,18.90
2018-11-22T07:57:14.030Z,18.90
2018-11-22T07:59:54.747Z,18.90
2018-11-22T08:02:36.447Z,18.80
2018-11-22T08:05:18.529Z,18.90
2018-11-22T08:08:00.591Z,18.90
2018-11-22T08:10:41.525Z,18.90
2018-11-22T08:13:23.041Z,18.90
2018-11-22T08:16:03.750Z,18.90
2018-11-22T08:18:44.769Z,18.90
2018-11-22T08:21:26.076Z,19.00
2018-11-22T08:24:07.305Z,19.00
2018-11-22T08:26:48.819Z,19.00
2018-11-22T08:29:30.608Z,19.00
2018-11-22T08:32:11.717Z,19.00
2018-11-22T08:34:52.798Z,19.00
2018-11-22T08:37:33.546Z,19.00
2018-11-22T08:40:22.449Z,19.00
2018-11-22T08:43:03.904Z,19.00
2018-11-22T08:45:44.907Z,19.00
2018-11-22T08:48:24.583Z,19.00
2018-11-22T08:51:13.231Z,19.00
2018-11-22T08:56:56.406Z,19.00
2018-11-22T08:59:45.424Z,19.00
2018-11-22T09:02:34.034Z,19.00
2018-11-22T09:05:41.418Z,19.00
2018-11-22T09:08:30.013Z,19.00
2018-11-22T09:11:18.669Z,19.00
2018-11-22T09:14:07.357Z,19.00
2018-11-22T09:16:56.374Z,19.00
2018-11-22T09:19:44.993Z,19.00
2018-11-22T09:22:34.004Z,18.90
2018-11-22T09:25:23.045Z,19.00
2018-11-22T09:28:11.664Z,19.00
2018-11-22T09:31:00.232Z,19.10
2018-11-22T09:36:37.810Z,19.50
2018-11-22T09:39:26.824Z,19.70
2018-11-22T09:42:15.529Z,19.70
2018-11-22T09:45:04.110Z,19.80
2018-11-22T09:47:53.283Z,19.80
2018-11-22T09:53:36.375Z,20.00
2018-11-22T09:56:25.302Z,20.00
2018-11-22T10:05:03.547Z,20.10
2018-11-22T10:07:52.027Z,20.00
2018-11-22T10:10:41.028Z,19.90
2018-11-22T10:13:29.640Z,19.80
2018-11-22T10:16:18.271Z,19.70
2018-11-22T10:19:06.910Z,19.70
2018-11-22T10:21:55.561Z,19.60
2018-11-22T10:27:53.615Z,19.60
2018-11-22T10:30:42.218Z,19.50
2018-11-22T10:33:30.813Z,19.50
2018-11-22T10:39:27.178Z,19.70
2018-11-22T10:42:15.826Z,19.90
2018-11-22T10:45:04.888Z,20.00
2018-11-22T10:47:54.769Z,20.10
2018-11-22T10:50:43.386Z,20.10
2018-11-22T10:53:32.327Z,20.10
2018-11-22T10:56:21.304Z,20.00
2018-11-22T10:59:09.952Z,19.90
2018-11-22T11:02:17.375Z,19.90
2018-11-22T11:05:24.836Z,19.80
2018-11-22T11:08:15.006Z,19.80
2018-11-22T11:11:03.785Z,19.70
2018-11-22T11:13:52.445Z,19.70
2018-11-22T11:16:41.014Z,19.70
2018-11-22T11:19:29.721Z,19.60
2018-11-22T11:22:18.314Z,19.60
2018-11-22T11:25:07.690Z,19.60
2018-11-22T11:30:51.511Z,19.60
2018-11-22T11:33:21.544Z,19.60
2018-11-22T12:15:53.576Z,19.80
2018-11-22T12:18:21.992Z,19.80
2018-11-22T12:20:50.383Z,19.80
2018-11-22T12:23:18.776Z,19.80
2018-11-22T12:25:47.153Z,19.70
2018-11-22T12:28:16.280Z,19.70
2018-11-22T12:30:44.736Z,19.70
2018-11-22T12:33:20.164Z,19.70
2018-11-22T12:35:54.557Z,19.60
2018-11-22T12:38:28.354Z,19.60
2018-11-22T12:40:56.733Z,19.60
2018-11-22T12:43:25.128Z,19.60
2018-11-22T12:45:53.532Z,19.70
2018-11-22T12:48:21.990Z,19.60
2018-11-22T12:50:50.389Z,19.70
2018-11-22T12:53:18.866Z,19.60
2018-11-22T12:55:47.275Z,19.60
2018-11-22T12:58:15.651Z,19.60
2018-11-22T13:00:44.086Z,19.60
2018-11-22T13:03:12.995Z,19.70
2018-11-22T13:05:41.449Z,19.60
2018-11-22T13:08:09.905Z,19.60
2018-11-22T13:10:38.308Z,19.60
2018-11-22T13:13:07.080Z,19.60
2018-11-22T13:15:35.487Z,19.60
2018-11-22T13:18:03.885Z,19.60
2018-11-22T13:20:32.881Z,19.60
2018-11-22T13:23:01.280Z,19.60
2018-11-22T13:25:29.676Z,19.50
2018-11-22T13:27:58.050Z,19.50
2018-11-22T13:30:28.657Z,19.70
2018-11-22T13:32:57.759Z,19.70
2018-11-22T13:35:26.148Z,19.60
2018-11-22T13:37:55.636Z,19.50
2018-11-22T13:40:24.259Z,19.60
2018-11-22T13:42:53.390Z,19.70
2018-11-22T13:45:23.759Z,19.80
2018-11-22T13:47:53.377Z,20.00
2018-11-22T13:50:27.568Z,20.10
2018-11-22T13:52:59.957Z,20.10
2018-11-22T13:55:28.361Z,20.00
2018-11-22T13:57:56.940Z,20.00
2018-11-22T14:00:26.764Z,19.90
2018-11-22T14:02:57.551Z,20.00
2018-11-22T14:05:25.940Z,20.00
2018-11-22T14:07:54.376Z,19.90
2018-11-22T14:10:23.113Z,19.90
2018-11-22T14:12:51.802Z,19.80
2018-11-22T14:15:25.597Z,19.80
2018-11-22T14:17:55.525Z,19.70
2018-11-22T14:20:25.532Z,19.70
2018-11-22T14:22:53.919Z,19.60
2018-11-22T14:25:22.306Z,19.60
2018-11-22T14:27:51.196Z,19.60
2018-11-22T14:30:20.997Z,19.70
2018-11-22T14:32:50.291Z,19.90
2018-11-22T14:35:19.813Z,19.90
2018-11-22T14:37:48.214Z,19.90
2018-11-22T14:40:19.132Z,19.90
2018-11-22T14:42:48.425Z,19.80
2018-11-22T14:45:17.228Z,19.80
2018-11-22T14:47:46.898Z,19.80
2018-11-22T14:50:26.014Z,19.80
2018-11-22T14:53:01.074Z,19.80
2018-11-22T14:55:29.487Z,19.70
2018-11-22T14:57:57.941Z,19.80
2018-11-22T15:00:26.396Z,19.80
2018-11-22T15:02:54.780Z,19.70
2018-11-22T15:05:23.177Z,19.70
2018-11-22T15:07:51.557Z,19.60
2018-11-22T15:10:19.996Z,19.60
2018-11-22T15:12:48.865Z,19.60
2018-11-22T15:15:19.063Z,19.60
2018-11-22T15:17:47.521Z,19.60
2018-11-22T15:20:20.020Z,19.70
2018-11-22T15:22:49.418Z,19.70
2018-11-22T15:25:19.540Z,19.70
2018-11-22T15:27:48.043Z,19.70
2018-11-22T15:30:20.993Z,19.70
2018-11-22T15:32:49.402Z,19.80
2018-11-22T15:35:19.183Z,19.90
2018-11-22T15:37:47.985Z,20.00
2018-11-22T15:40:17.804Z,20.10
2018-11-22T15:42:48.455Z,20.10
2018-11-22T15:45:17.348Z,20.00
2018-11-22T15:47:46.008Z,20.00
2018-11-22T15:50:15.757Z,19.90
2018-11-22T15:52:44.400Z,19.90
2018-11-22T15:55:20.451Z,19.80
2018-11-22T15:57:43.112Z,19.80
2018-11-22T16:00:14.059Z,19.80
2018-11-22T16:02:43.400Z,19.80
2018-11-22T16:05:12.765Z,19.70
2018-11-22T16:07:41.954Z,19.70
2018-11-22T16:10:14.986Z,19.70
2018-11-22T16:12:44.545Z,19.70
2018-11-22T16:15:17.997Z,19.60
2018-11-22T16:17:46.427Z,19.70
2018-11-22T16:20:14.829Z,19.60
2018-11-22T16:22:43.351Z,19.60
2018-11-22T16:25:12.913Z,19.60
2018-11-22T16:27:41.562Z,19.60
2018-11-22T16:30:15.696Z,19.60
2018-11-22T16:32:44.479Z,19.60
2018-11-22T16:35:14.213Z,19.60
2018-11-22T16:37:43.604Z,19.60
2018-11-22T16:40:14.855Z,19.70
2018-11-22T16:42:44.352Z,19.80
2018-11-22T16:45:19.047Z,19.90
2018-11-22T16:47:47.558Z,20.00
2018-11-22T16:50:17.305Z,20.00
2018-11-22T16:52:45.907Z,20.00
2018-11-22T16:55:14.722Z,19.90
2018-11-22T16:57:44.475Z,19.90
2018-11-22T17:00:22.881Z,19.90
2018-11-22T17:02:52.829Z,19.90
2018-11-22T17:05:21.419Z,19.80
2018-11-22T17:07:49.953Z,19.80
2018-11-22T17:10:19.761Z,19.80
2018-11-22T17:12:49.797Z,19.80
2018-11-22T17:15:19.584Z,19.70
2018-11-22T17:17:48.504Z,19.70
2018-11-22T17:20:18.010Z,19.80
2018-11-22T17:22:47.105Z,20.20
2018-11-22T17:25:19.990Z,20.10
2018-11-22T17:27:49.705Z,20.20
2018-11-22T17:30:20.436Z,20.30
2018-11-22T17:32:48.884Z,20.50
2018-11-22T17:35:20.840Z,20.60
2018-11-22T17:37:49.626Z,20.70
2018-11-22T17:40:22.333Z,20.90
2018-11-22T17:42:50.903Z,21.00
2018-11-22T17:45:23.764Z,21.10
2018-11-22T17:47:52.625Z,21.10
2018-11-22T17:50:22.152Z,21.10
2018-11-22T17:52:50.561Z,21.10
2018-11-22T17:55:20.476Z,21.00
2018-11-22T17:57:48.892Z,21.00
2018-11-22T18:00:19.590Z,20.90
2018-11-22T18:02:49.625Z,20.90
2018-11-22T18:05:18.124Z,20.80
2018-11-22T18:07:46.670Z,20.70
2018-11-22T18:10:18.858Z,20.60
2018-11-22T18:12:47.940Z,20.50
2018-11-22T18:15:17.405Z,20.50
2018-11-22T18:17:46.109Z,20.60
2018-11-22T18:20:17.064Z,20.60
2018-11-22T18:22:46.149Z,20.70
2018-11-22T18:25:16.105Z,20.80
2018-11-22T18:27:44.568Z,20.80
2018-11-22T18:30:30.207Z,20.70
2018-11-22T18:33:00.474Z,20.60
2018-11-22T18:35:28.881Z,20.50
2018-11-22T18:37:57.397Z,20.50
2018-11-22T18:40:27.143Z,20.60
2018-11-22T18:42:56.643Z,20.70
2018-11-22T18:45:32.350Z,20.80
2018-11-22T18:48:02.004Z,20.90
2018-11-22T18:50:31.617Z,20.90
2018-11-22T18:53:00.104Z,20.90
2018-11-22T18:55:28.560Z,20.90
2018-11-22T18:57:56.966Z,20.80
2018-11-22T19:00:26.618Z,20.70
2018-11-22T19:02:56.504Z,20.60
2018-11-22T19:05:25.077Z,20.50
2018-11-22T19:07:54.258Z,20.50
2018-11-22T19:10:24.985Z,20.60
2018-11-22T19:12:54.704Z,20.70
2018-11-22T19:15:24.424Z,20.80
2018-11-22T19:17:53.396Z,20.90
2018-11-22T19:20:24.452Z,20.90
2018-11-22T19:22:53.454Z,20.90
2018-11-22T19:25:22.412Z,20.80
2018-11-22T19:27:51.351Z,20.80
2018-11-22T19:30:22.449Z,20.60
2018-11-22T19:32:51.988Z,20.60
2018-11-22T19:35:22.093Z,20.50
2018-11-22T19:37:50.883Z,20.40
2018-11-22T19:40:21.503Z,20.40
2018-11-22T19:42:51.392Z,20.50
2018-11-22T19:45:20.860Z,20.50
2018-11-22T19:47:49.513Z,20.60
2018-11-22T19:50:19.434Z,20.70
2018-11-22T19:52:48.617Z,20.70
2018-11-22T19:55:19.789Z,20.80
2018-11-22T19:57:49.884Z,20.80
2018-11-22T20:00:19.094Z,20.70
2018-11-22T20:02:47.986Z,20.60
2018-11-22T20:05:17.607Z,20.60
2018-11-22T20:07:47.317Z,20.50
2018-11-22T20:10:19.352Z,20.50
2018-11-22T20:12:47.789Z,20.50
2018-11-22T20:15:16.419Z,20.50
2018-11-22T20:17:45.636Z,20.70
2018-11-22T20:20:15.213Z,20.80
2018-11-22T20:22:43.651Z,20.90
2018-11-22T20:25:12.081Z,20.90
2018-11-22T20:27:40.950Z,21.00
2018-11-22T20:30:15.008Z,20.90
2018-11-22T20:32:43.890Z,20.90
2018-11-22T20:35:14.468Z,20.80
2018-11-22T20:37:43.632Z,20.70
2018-11-22T20:40:13.417Z,20.60
2018-11-22T20:42:42.090Z,20.50
2018-11-22T20:45:12.353Z,20.50
2018-11-22T20:47:41.621Z,20.50
2018-11-22T20:50:15.457Z,20.50
2018-11-22T20:52:44.658Z,20.70
2018-11-22T20:55:15.751Z,20.70
2018-11-22T20:57:44.985Z,20.90
2018-11-22T21:00:15.516Z,20.80
2018-11-22T21:02:44.100Z,20.80
2018-11-22T21:05:13.080Z,20.80
2018-11-22T21:07:42.179Z,20.70
2018-11-22T21:10:15.893Z,20.60
2018-11-22T21:12:44.340Z,20.60
2018-11-22T21:15:15.549Z,20.50
2018-11-22T21:17:44.716Z,20.50
2018-11-22T21:20:15.138Z,20.40
2018-11-22T21:22:43.565Z,20.30
2018-11-22T21:25:14.719Z,20.30
2018-11-22T21:27:43.132Z,20.30
2018-11-22T21:30:15.713Z,20.30
2018-11-22T21:32:45.023Z,20.20
2018-11-22T21:35:13.697Z,20.20
2018-11-22T21:37:42.420Z,20.20
2018-11-22T21:40:11.592Z,20.10
2018-11-22T21:42:40.081Z,20.10
2018-11-22T21:45:13.208Z,20.10
2018-11-22T21:47:42.314Z,20.10
2018-11-22T21:50:12.128Z,20.10
2018-11-22T21:52:40.540Z,20.10
2018-11-22T21:55:11.370Z,20.10
2018-11-22T21:57:40.897Z,20.00
2018-11-22T22:00:14.034Z,20.00
2018-11-22T22:02:42.458Z,20.00
2018-11-22T22:05:11.342Z,20.00
2018-11-22T22:07:40.149Z,20.00
2018-11-22T22:10:08.559Z,20.00
2018-11-22T22:12:37.063Z,20.00
2018-11-22T22:15:07.877Z,20.00
2018-11-22T22:17:36.328Z,19.90
2018-11-22T22:20:06.675Z,19.90
2018-11-22T22:22:35.108Z,19.90
2018-11-22T22:25:03.481Z,19.90
2018-11-22T22:27:32.024Z,19.90
2018-11-22T22:30:00.438Z,19.90
2018-11-22T22:32:28.897Z,19.90
2018-11-22T22:34:57.284Z,19.90
2018-11-22T22:37:25.868Z,19.90
2018-11-22T22:39:54.258Z,19.90
2018-11-22T22:42:22.661Z,19.90
2018-11-22T22:44:51.070Z,19.90
2018-11-22T22:47:19.499Z,19.90
2018-11-22T22:49:48.291Z,19.80
2018-11-22T22:52:16.717Z,19.90
2018-11-22T22:54:45.684Z,19.80
2018-11-22T22:57:14.140Z,19.80
2018-11-22T22:59:42.527Z,19.80
2018-11-22T23:02:10.962Z,19.80
2018-11-22T23:04:39.369Z,19.80
2018-11-22T23:07:07.765Z,19.80
2018-11-22T23:09:36.184Z,19.80
2018-11-22T23:12:04.814Z,19.80
2018-11-22T23:14:33.242Z,19.80
2018-11-22T23:17:01.653Z,19.80
2018-11-22T23:19:30.078Z,19.80
2018-11-22T23:21:58.521Z,19.80
2018-11-22T23:24:27.055Z,19.70
2018-11-22T23:26:55.473Z,19.80
2018-11-22T23:29:23.881Z,19.70
2018-11-22T23:31:52.358Z,19.70
2018-11-22T23:34:20.789Z,19.70
2018-11-22T23:36:49.246Z,19.70
2018-11-22T23:39:17.664Z,19.70
2018-11-22T23:41:46.062Z,19.70
2018-11-22T23:44:14.610Z,19.70
2018-11-22T23:46:43.045Z,19.70
2018-11-22T23:49:11.584Z,19.70
2018-11-22T23:51:47.713Z,19.70
2018-11-22T23:54:16.128Z,19.60
2018-11-22T23:56:44.685Z,19.70
2018-11-22T23:59:13.141Z,19.70
